Metar z pełnej godziny Komunikat METAR ze strony awiacja.imgw.pl Metar G00 EPWR METAR EPWR 160800Z 26015KT 9999 FEW036 09/M00 Q1002 =